sensor_id;sensor_type;location;lat;lon;timestamp;temperature;humidity
71649;SHT31;70112;45.624;11.760;2024-03-25T00:02:09;10.03;58.88
71649;SHT31;70112;45.624;11.760;2024-03-25T00:04:34;9.99;58.90
71649;SHT31;70112;45.624;11.760;2024-03-25T00:07:00;9.95;58.97
71649;SHT31;70112;45.624;11.760;2024-03-25T00:09:26;9.89;59.06
71649;SHT31;70112;45.624;11.760;2024-03-25T00:11:52;9.84;59.19
71649;SHT31;70112;45.624;11.760;2024-03-25T00:14:21;9.82;59.46
71649;SHT31;70112;45.624;11.760;2024-03-25T00:16:47;9.83;59.65
71649;SHT31;70112;45.624;11.760;2024-03-25T00:19:13;9.81;59.83
71649;SHT31;70112;45.624;11.760;2024-03-25T00:21:39;9.79;59.88
71649;SHT31;70112;45.624;11.760;2024-03-25T00:24:04;9.74;59.80
71649;SHT31;70112;45.624;11.760;2024-03-25T00:26:30;9.69;59.81
71649;SHT31;70112;45.624;11.760;2024-03-25T00:28:56;9.66;59.89
71649;SHT31;70112;45.624;11.760;2024-03-25T00:31:21;9.65;59.99
71649;SHT31;70112;45.624;11.760;2024-03-25T00:33:47;9.65;60.00
71649;SHT31;70112;45.624;11.760;2024-03-25T00:36:12;9.66;59.90
71649;SHT31;70112;45.624;11.760;2024-03-25T00:38:38;9.68;59.79
71649;SHT31;70112;45.624;11.760;2024-03-25T00:41:03;9.69;59.56
71649;SHT31;70112;45.624;11.760;2024-03-25T00:43:29;9.71;59.41
71649;SHT31;70112;45.624;11.760;2024-03-25T00:45:55;9.70;59.29
71649;SHT31;70112;45.624;11.760;2024-03-25T00:48:21;9.67;59.21
71649;SHT31;70112;45.624;11.760;2024-03-25T00:50:47;9.56;59.01
71649;SHT31;70112;45.624;11.760;2024-03-25T00:53:13;9.46;59.17
71649;SHT31;70112;45.624;11.760;2024-03-25T00:55:39;9.46;59.25
71649;SHT31;70112;45.624;11.760;2024-03-25T00:58:05;9.45;59.58
71649;SHT31;70112;45.624;11.760;2024-03-25T01:00:31;9.45;59.65
71649;SHT31;70112;45.624;11.760;2024-03-25T01:02:56;9.45;59.61
71649;SHT31;70112;45.624;11.760;2024-03-25T01:05:22;9.43;59.77
71649;SHT31;70112;45.624;11.760;2024-03-25T01:07:47;9.39;59.89
71649;SHT31;70112;45.624;11.760;2024-03-25T01:10:15;9.35;59.82
71649;SHT31;70112;45.624;11.760;2024-03-25T01:12:41;9.33;59.78
71649;SHT31;70112;45.624;11.760;2024-03-25T01:15:07;9.31;59.75
71649;SHT31;70112;45.624;11.760;2024-03-25T01:17:35;9.16;59.96
71649;SHT31;70112;45.624;11.760;2024-03-25T01:20:01;8.95;60.47
71649;SHT31;70112;45.624;11.760;2024-03-25T01:22:29;9.12;60.07
71649;SHT31;70112;45.624;11.760;2024-03-25T01:24:58;9.09;60.33
71649;SHT31;70112;45.624;11.760;2024-03-25T01:27:24;9.09;60.38
71649;SHT31;70112;45.624;11.760;2024-03-25T01:29:49;9.07;60.32
71649;SHT31;70112;45.624;11.760;2024-03-25T01:32:15;9.03;60.33
71649;SHT31;70112;45.624;11.760;2024-03-25T01:34:41;8.98;60.34
71649;SHT31;70112;45.624;11.760;2024-03-25T01:37:06;8.93;60.38
71649;SHT31;70112;45.624;11.760;2024-03-25T01:39:32;8.88;60.33
71649;SHT31;70112;45.624;11.760;2024-03-25T01:41:57;8.85;60.33
71649;SHT31;70112;45.624;11.760;2024-03-25T01:44:25;8.82;60.40
71649;SHT31;70112;45.624;11.760;2024-03-25T01:46:51;8.77;60.43
71649;SHT31;70112;45.624;11.760;2024-03-25T01:49:18;8.71;60.49
71649;SHT31;70112;45.624;11.760;2024-03-25T01:51:45;8.68;60.64
71649;SHT31;70112;45.624;11.760;2024-03-25T01:54:11;8.67;60.89
71649;SHT31;70112;45.624;11.760;2024-03-25T01:56:39;8.65;61.09
71649;SHT31;70112;45.624;11.760;2024-03-25T01:59:06;8.60;61.29
71649;SHT31;70112;45.624;11.760;2024-03-25T02:01:32;8.58;61.44
71649;SHT31;70112;45.624;11.760;2024-03-25T02:03:57;8.55;61.63
71649;SHT31;70112;45.624;11.760;2024-03-25T02:06:26;8.53;61.76
71649;SHT31;70112;45.624;11.760;2024-03-25T02:08:53;8.53;61.98
71649;SHT31;70112;45.624;11.760;2024-03-25T02:11:20;8.52;62.13
71649;SHT31;70112;45.624;11.760;2024-03-25T02:13:46;8.50;62.27
71649;SHT31;70112;45.624;11.760;2024-03-25T02:16:11;8.46;62.37
71649;SHT31;70112;45.624;11.760;2024-03-25T02:18:37;8.45;62.26
71649;SHT31;70112;45.624;11.760;2024-03-25T02:21:11;8.42;62.27
71649;SHT31;70112;45.624;11.760;2024-03-25T02:23:38;8.38;62.18
71649;SHT31;70112;45.624;11.760;2024-03-25T02:26:04;8.36;62.23
71649;SHT31;70112;45.624;11.760;2024-03-25T02:28:30;8.36;62.42
71649;SHT31;70112;45.624;11.760;2024-03-25T02:30:55;8.33;62.46
71649;SHT31;70112;45.624;11.760;2024-03-25T02:33:21;8.31;62.27
71649;SHT31;70112;45.624;11.760;2024-03-25T02:35:47;8.28;62.09
71649;SHT31;70112;45.624;11.760;2024-03-25T02:38:15;8.21;62.04
71649;SHT31;70112;45.624;11.760;2024-03-25T02:40:54;8.15;62.21
71649;SHT31;70112;45.624;11.760;2024-03-25T02:43:27;8.11;62.27
71649;SHT31;70112;45.624;11.760;2024-03-25T02:45:53;8.09;62.26
71649;SHT31;70112;45.624;11.760;2024-03-25T02:48:19;8.05;62.27
71649;SHT31;70112;45.624;11.760;2024-03-25T02:50:45;7.99;62.34
71649;SHT31;70112;45.624;11.760;2024-03-25T02:53:11;7.96;62.41
71649;SHT31;70112;45.624;11.760;2024-03-25T02:55:39;7.92;62.44
71649;SHT31;70112;45.624;11.760;2024-03-25T02:58:06;7.91;62.33
71649;SHT31;70112;45.624;11.760;2024-03-25T03:00:38;7.89;62.52
71649;SHT31;70112;45.624;11.760;2024-03-25T03:03:03;7.88;62.50
71649;SHT31;70112;45.624;11.760;2024-03-25T03:05:32;7.88;62.47
71649;SHT31;70112;45.624;11.760;2024-03-25T03:08:04;7.89;62.47
71649;SHT31;70112;45.624;11.760;2024-03-25T03:10:30;7.87;62.39
71649;SHT31;70112;45.624;11.760;2024-03-25T03:12:55;7.88;62.37
71649;SHT31;70112;45.624;11.760;2024-03-25T03:15:21;7.85;62.47
71649;SHT31;70112;45.624;11.760;2024-03-25T03:17:47;7.84;62.44
71649;SHT31;70112;45.624;11.760;2024-03-25T03:20:12;7.85;62.28
71649;SHT31;70112;45.624;11.760;2024-03-25T03:22:38;7.84;62.23
71649;SHT31;70112;45.624;11.760;2024-03-25T03:25:03;7.82;61.95
71649;SHT31;70112;45.624;11.760;2024-03-25T03:27:29;7.82;61.92
71649;SHT31;70112;45.624;11.760;2024-03-25T03:29:55;7.78;61.87
71649;SHT31;70112;45.624;11.760;2024-03-25T03:32:21;7.69;61.84
71649;SHT31;70112;45.624;11.760;2024-03-25T03:34:47;7.51;62.19
71649;SHT31;70112;45.624;11.760;2024-03-25T03:37:12;7.70;61.84
71649;SHT31;70112;45.624;11.760;2024-03-25T03:39:40;7.72;61.96
71649;SHT31;70112;45.624;11.760;2024-03-25T03:42:12;7.72;61.89
71649;SHT31;70112;45.624;11.760;2024-03-25T03:44:41;7.72;61.81
71649;SHT31;70112;45.624;11.760;2024-03-25T03:47:09;7.54;62.36
71649;SHT31;70112;45.624;11.760;2024-03-25T03:49:37;7.68;62.00
71649;SHT31;70112;45.624;11.760;2024-03-25T03:52:02;7.68;61.90
71649;SHT31;70112;45.624;11.760;2024-03-25T03:54:28;7.69;61.90
71649;SHT31;70112;45.624;11.760;2024-03-25T03:56:54;7.69;61.81
71649;SHT31;70112;45.624;11.760;2024-03-25T03:59:20;7.68;61.96
71649;SHT31;70112;45.624;11.760;2024-03-25T04:01:45;7.69;62.07
71649;SHT31;70112;45.624;11.760;2024-03-25T04:04:11;7.70;62.09
71649;SHT31;70112;45.624;11.760;2024-03-25T04:06:36;7.68;62.21
71649;SHT31;70112;45.624;11.760;2024-03-25T04:09:05;7.69;62.26
71649;SHT31;70112;45.624;11.760;2024-03-25T04:11:34;7.66;62.13
71649;SHT31;70112;45.624;11.760;2024-03-25T04:14:01;7.63;62.01
71649;SHT31;70112;45.624;11.760;2024-03-25T04:16:27;7.60;61.92
71649;SHT31;70112;45.624;11.760;2024-03-25T04:18:55;7.59;62.06
71649;SHT31;70112;45.624;11.760;2024-03-25T04:21:22;7.52;61.96
71649;SHT31;70112;45.624;11.760;2024-03-25T04:23:48;7.47;61.90
71649;SHT31;70112;45.624;11.760;2024-03-25T04:26:14;7.44;61.90
71649;SHT31;70112;45.624;11.760;2024-03-25T04:28:43;7.41;61.91
71649;SHT31;70112;45.624;11.760;2024-03-25T04:31:09;7.36;62.02
71649;SHT31;70112;45.624;11.760;2024-03-25T04:33:35;7.33;62.22
71649;SHT31;70112;45.624;11.760;2024-03-25T04:36:03;7.33;62.37
71649;SHT31;70112;45.624;11.760;2024-03-25T04:38:54;7.35;62.71
71649;SHT31;70112;45.624;11.760;2024-03-25T04:41:29;7.34;62.73
71649;SHT31;70112;45.624;11.760;2024-03-25T04:44:06;7.33;62.80
71649;SHT31;70112;45.624;11.760;2024-03-25T04:46:53;7.31;62.79
71649;SHT31;70112;45.624;11.760;2024-03-25T04:49:23;7.29;62.64
71649;SHT31;70112;45.624;11.760;2024-03-25T04:52:15;7.24;62.62
71649;SHT31;70112;45.624;11.760;2024-03-25T04:54:51;7.20;62.76
71649;SHT31;70112;45.624;11.760;2024-03-25T04:57:34;7.18;62.79
71649;SHT31;70112;45.624;11.760;2024-03-25T05:00:00;7.18;62.82
71649;SHT31;70112;45.624;11.760;2024-03-25T05:02:31;7.18;62.96
71649;SHT31;70112;45.624;11.760;2024-03-25T05:04:56;7.18;63.13
71649;SHT31;70112;45.624;11.760;2024-03-25T05:07:33;7.16;63.15
71649;SHT31;70112;45.624;11.760;2024-03-25T05:10:05;7.14;63.19
71649;SHT31;70112;45.624;11.760;2024-03-25T05:12:40;7.13;63.35
71649;SHT31;70112;45.624;11.760;2024-03-25T05:15:06;7.11;63.15
71649;SHT31;70112;45.624;11.760;2024-03-25T05:17:32;7.08;62.99
71649;SHT31;70112;45.624;11.760;2024-03-25T05:19:57;6.98;62.95
71649;SHT31;70112;45.624;11.760;2024-03-25T05:22:26;6.94;63.01
71649;SHT31;70112;45.624;11.760;2024-03-25T05:25:23;6.93;63.10
71649;SHT31;70112;45.624;11.760;2024-03-25T05:27:49;6.91;63.25
71649;SHT31;70112;45.624;11.760;2024-03-25T05:30:32;6.91;63.48
71649;SHT31;70112;45.624;11.760;2024-03-25T05:33:01;6.90;63.67
71649;SHT31;70112;45.624;11.760;2024-03-25T05:35:26;6.89;63.63
71649;SHT31;70112;45.624;11.760;2024-03-25T05:38:01;6.88;63.60
71649;SHT31;70112;45.624;11.760;2024-03-25T05:40:37;6.88;63.72
71649;SHT31;70112;45.624;11.760;2024-03-25T05:43:06;6.88;63.68
71649;SHT31;70112;45.624;11.760;2024-03-25T05:45:40;6.82;63.63
71649;SHT31;70112;45.624;11.760;2024-03-25T05:48:36;6.82;63.79
71649;SHT31;70112;45.624;11.760;2024-03-25T05:51:13;6.86;63.80
71649;SHT31;70112;45.624;11.760;2024-03-25T05:53:56;6.91;63.57
71649;SHT31;70112;45.624;11.760;2024-03-25T05:56:38;6.96;63.65
71649;SHT31;70112;45.624;11.760;2024-03-25T05:59:08;7.00;63.87
71649;SHT31;70112;45.624;11.760;2024-03-25T06:01:34;7.01;63.90
71649;SHT31;70112;45.624;11.760;2024-03-25T06:04:06;7.00;63.83
71649;SHT31;70112;45.624;11.760;2024-03-25T06:06:44;6.96;64.03
71649;SHT31;70112;45.624;11.760;2024-03-25T06:09:10;6.98;64.11
71649;SHT31;70112;45.624;11.760;2024-03-25T06:11:43;7.04;64.29
71649;SHT31;70112;45.624;11.760;2024-03-25T06:14:26;7.16;64.12
71649;SHT31;70112;45.624;11.760;2024-03-25T06:16:54;7.23;64.08
71649;SHT31;70112;45.624;11.760;2024-03-25T06:19:26;7.30;64.11
71649;SHT31;70112;45.624;11.760;2024-03-25T06:21:52;7.40;63.77
71649;SHT31;70112;45.624;11.760;2024-03-25T06:24:31;7.47;62.91
71649;SHT31;70112;45.624;11.760;2024-03-25T06:27:00;7.56;62.01
71649;SHT31;70112;45.624;11.760;2024-03-25T06:29:29;7.67;61.64
71649;SHT31;70112;45.624;11.760;2024-03-25T06:31:55;7.78;61.45
71649;SHT31;70112;45.624;11.760;2024-03-25T06:34:40;7.90;61.45
71649;SHT31;70112;45.624;11.760;2024-03-25T06:40:02;8.14;61.40
71649;SHT31;70112;45.624;11.760;2024-03-25T06:42:34;8.29;61.40
71649;SHT31;70112;45.624;11.760;2024-03-25T06:45:05;8.48;61.32
71649;SHT31;70112;45.624;11.760;2024-03-25T06:47:42;8.70;60.71
71649;SHT31;70112;45.624;11.760;2024-03-25T06:50:07;8.84;60.22
71649;SHT31;70112;45.624;11.760;2024-03-25T06:52:36;8.97;59.87
71649;SHT31;70112;45.624;11.760;2024-03-25T06:55:02;9.17;59.81
71649;SHT31;70112;45.624;11.760;2024-03-25T06:57:30;9.42;59.51
71649;SHT31;70112;45.624;11.760;2024-03-25T06:59:56;9.56;59.20
71649;SHT31;70112;45.624;11.760;2024-03-25T07:02:23;9.64;58.91
71649;SHT31;70112;45.624;11.760;2024-03-25T07:04:49;9.72;58.73
71649;SHT31;70112;45.624;11.760;2024-03-25T07:07:17;9.84;58.64
71649;SHT31;70112;45.624;11.760;2024-03-25T07:09:47;10.06;58.38
71649;SHT31;70112;45.624;11.760;2024-03-25T07:12:12;10.17;57.98
71649;SHT31;70112;45.624;11.760;2024-03-25T07:14:41;10.24;57.90
71649;SHT31;70112;45.624;11.760;2024-03-25T07:17:10;10.27;57.91
71649;SHT31;70112;45.624;11.760;2024-03-25T07:19:35;10.28;57.44
71649;SHT31;70112;45.624;11.760;2024-03-25T07:22:04;10.28;57.68
71649;SHT31;70112;45.624;11.760;2024-03-25T07:24:29;10.28;58.13
71649;SHT31;70112;45.624;11.760;2024-03-25T07:27:01;10.31;58.18
71649;SHT31;70112;45.624;11.760;2024-03-25T07:29:26;10.33;58.16
71649;SHT31;70112;45.624;11.760;2024-03-25T07:31:54;10.33;57.93
71649;SHT31;70112;45.624;11.760;2024-03-25T07:34:21;10.35;57.55
71649;SHT31;70112;45.624;11.760;2024-03-25T07:36:57;10.41;57.96
71649;SHT31;70112;45.624;11.760;2024-03-25T07:39:22;10.54;58.05
71649;SHT31;70112;45.624;11.760;2024-03-25T07:41:52;10.63;58.19
71649;SHT31;70112;45.624;11.760;2024-03-25T07:44:18;10.83;57.99
71649;SHT31;70112;45.624;11.760;2024-03-25T07:46:44;11.62;56.98
71649;SHT31;70112;45.624;11.760;2024-03-25T07:49:09;12.79;55.51
71649;SHT31;70112;45.624;11.760;2024-03-25T07:51:36;13.37;54.12
71649;SHT31;70112;45.624;11.760;2024-03-25T07:54:04;13.81;53.22
71649;SHT31;70112;45.624;11.760;2024-03-25T07:56:29;15.03;52.38
71649;SHT31;70112;45.624;11.760;2024-03-25T07:58:57;16.83;50.62
71649;SHT31;70112;45.624;11.760;2024-03-25T08:01:24;18.70;48.83
71649;SHT31;70112;45.624;11.760;2024-03-25T08:03:50;20.49;46.87
71649;SHT31;70112;45.624;11.760;2024-03-25T08:06:15;22.05;44.58
71649;SHT31;70112;45.624;11.760;2024-03-25T08:08:41;23.51;42.86
71649;SHT31;70112;45.624;11.760;2024-03-25T08:11:06;24.89;40.67
71649;SHT31;70112;45.624;11.760;2024-03-25T08:13:32;25.99;38.50
71649;SHT31;70112;45.624;11.760;2024-03-25T08:15:58;26.87;36.05
71649;SHT31;70112;45.624;11.760;2024-03-25T08:18:23;27.56;34.83
71649;SHT31;70112;45.624;11.760;2024-03-25T08:20:48;28.31;34.10
71649;SHT31;70112;45.624;11.760;2024-03-25T08:23:14;29.05;32.79
71649;SHT31;70112;45.624;11.760;2024-03-25T08:25:39;29.72;31.09
71649;SHT31;70112;45.624;11.760;2024-03-25T08:28:04;30.35;29.91
71649;SHT31;70112;45.624;11.760;2024-03-25T08:30:30;30.94;28.84
71649;SHT31;70112;45.624;11.760;2024-03-25T08:32:55;31.57;27.53
71649;SHT31;70112;45.624;11.760;2024-03-25T08:35:21;32.11;26.67
71649;SHT31;70112;45.624;11.760;2024-03-25T08:37:46;32.48;26.43
71649;SHT31;70112;45.624;11.760;2024-03-25T08:40:12;32.68;26.04
71649;SHT31;70112;45.624;11.760;2024-03-25T08:42:37;32.88;25.94
71649;SHT31;70112;45.624;11.760;2024-03-25T08:45:05;33.13;25.32
71649;SHT31;70112;45.624;11.760;2024-03-25T08:47:31;33.59;24.92
71649;SHT31;70112;45.624;11.760;2024-03-25T08:49:56;33.92;24.49
71649;SHT31;70112;45.624;11.760;2024-03-25T08:52:21;34.27;24.18
71649;SHT31;70112;45.624;11.760;2024-03-25T08:54:47;34.71;24.23
71649;SHT31;70112;45.624;11.760;2024-03-25T08:57:12;35.27;23.53
71649;SHT31;70112;45.624;11.760;2024-03-25T08:59:37;35.61;22.92
71649;SHT31;70112;45.624;11.760;2024-03-25T09:02:05;35.93;22.62
71649;SHT31;70112;45.624;11.760;2024-03-25T09:04:30;36.20;21.73
71649;SHT31;70112;45.624;11.760;2024-03-25T09:06:55;36.32;21.38
71649;SHT31;70112;45.624;11.760;2024-03-25T09:09:21;36.16;20.99
71649;SHT31;70112;45.624;11.760;2024-03-25T09:12:05;36.10;20.73
71649;SHT31;70112;45.624;11.760;2024-03-25T09:14:31;36.39;20.77
71649;SHT31;70112;45.624;11.760;2024-03-25T09:16:57;36.82;20.16
71649;SHT31;70112;45.624;11.760;2024-03-25T09:19:22;37.00;19.73
71649;SHT31;70112;45.624;11.760;2024-03-25T09:21:48;37.06;19.59
71649;SHT31;70112;45.624;11.760;2024-03-25T09:24:14;37.40;19.71
71649;SHT31;70112;45.624;11.760;2024-03-25T09:26:40;37.69;19.47
71649;SHT31;70112;45.624;11.760;2024-03-25T09:29:05;37.83;19.65
71649;SHT31;70112;45.624;11.760;2024-03-25T09:31:31;37.96;18.77
71649;SHT31;70112;45.624;11.760;2024-03-25T09:33:56;38.15;18.63
71649;SHT31;70112;45.624;11.760;2024-03-25T09:36:22;38.26;18.14
71649;SHT31;70112;45.624;11.760;2024-03-25T09:38:47;38.06;17.65
71649;SHT31;70112;45.624;11.760;2024-03-25T09:41:13;37.91;18.19
71649;SHT31;70112;45.624;11.760;2024-03-25T09:43:48;37.77;17.82
71649;SHT31;70112;45.624;11.760;2024-03-25T09:46:22;37.36;18.10
71649;SHT31;70112;45.624;11.760;2024-03-25T09:48:49;36.78;18.32
71649;SHT31;70112;45.624;11.760;2024-03-25T09:51:18;35.95;18.50
71649;SHT31;70112;45.624;11.760;2024-03-25T09:53:44;34.67;19.20
71649;SHT31;70112;45.624;11.760;2024-03-25T09:56:10;33.25;19.62
71649;SHT31;70112;45.624;11.760;2024-03-25T09:58:38;31.66;20.97
71649;SHT31;70112;45.624;11.760;2024-03-25T10:01:04;30.20;21.49
71649;SHT31;70112;45.624;11.760;2024-03-25T10:03:30;29.13;22.12
71649;SHT31;70112;45.624;11.760;2024-03-25T10:05:55;28.27;22.44
71649;SHT31;70112;45.624;11.760;2024-03-25T10:08:21;27.45;22.96
71649;SHT31;70112;45.624;11.760;2024-03-25T10:10:47;26.83;22.97
71649;SHT31;70112;45.624;11.760;2024-03-25T10:13:12;26.12;23.10
71649;SHT31;70112;45.624;11.760;2024-03-25T10:15:37;25.38;23.87
71649;SHT31;70112;45.624;11.760;2024-03-25T10:18:03;24.84;23.99
71649;SHT31;70112;45.624;11.760;2024-03-25T10:20:30;24.47;24.19
71649;SHT31;70112;45.624;11.760;2024-03-25T10:22:55;24.27;24.32
71649;SHT31;70112;45.624;11.760;2024-03-25T10:25:28;23.98;24.14
71649;SHT31;70112;45.624;11.760;2024-03-25T10:27:55;23.71;24.93
71649;SHT31;70112;45.624;11.760;2024-03-25T10:30:22;23.43;25.38
71649;SHT31;70112;45.624;11.760;2024-03-25T10:35:33;22.79;25.36
71649;SHT31;70112;45.624;11.760;2024-03-25T10:38:03;22.60;26.17
71649;SHT31;70112;45.624;11.760;2024-03-25T10:40:31;22.39;25.96
71649;SHT31;70112;45.624;11.760;2024-03-25T10:43:02;22.12;25.82
71649;SHT31;70112;45.624;11.760;2024-03-25T10:45:40;21.96;26.10
71649;SHT31;70112;45.624;11.760;2024-03-25T10:48:17;21.77;27.03
71649;SHT31;70112;45.624;11.760;2024-03-25T10:50:46;21.55;27.40
71649;SHT31;70112;45.624;11.760;2024-03-25T10:53:14;21.25;27.05
71649;SHT31;70112;45.624;11.760;2024-03-25T10:55:42;21.14;27.46
71649;SHT31;70112;45.624;11.760;2024-03-25T10:58:13;21.07;27.21
71649;SHT31;70112;45.624;11.760;2024-03-25T11:00:41;20.95;27.68
71649;SHT31;70112;45.624;11.760;2024-03-25T11:03:08;20.83;28.18
71649;SHT31;70112;45.624;11.760;2024-03-25T11:05:35;20.76;29.34
71649;SHT31;70112;45.624;11.760;2024-03-25T11:08:13;20.52;29.48
71649;SHT31;70112;45.624;11.760;2024-03-25T11:10:41;20.25;29.83
71649;SHT31;70112;45.624;11.760;2024-03-25T11:13:11;20.11;30.82
71649;SHT31;70112;45.624;11.760;2024-03-25T11:15:41;20.00;30.94
71649;SHT31;70112;45.624;11.760;2024-03-25T11:18:12;19.99;32.04
71649;SHT31;70112;45.624;11.760;2024-03-25T11:20:38;19.98;33.41
71649;SHT31;70112;45.624;11.760;2024-03-25T11:23:08;20.00;33.14
71649;SHT31;70112;45.624;11.760;2024-03-25T11:25:36;19.90;32.91
71649;SHT31;70112;45.624;11.760;2024-03-25T11:28:02;19.72;32.94
71649;SHT31;70112;45.624;11.760;2024-03-25T11:30:28;19.50;33.29
71649;SHT31;70112;45.624;11.760;2024-03-25T11:32:56;19.38;33.49
71649;SHT31;70112;45.624;11.760;2024-03-25T11:35:25;19.38;33.71
71649;SHT31;70112;45.624;11.760;2024-03-25T11:37:51;19.38;33.83
71649;SHT31;70112;45.624;11.760;2024-03-25T11:40:17;19.36;33.72
71649;SHT31;70112;45.624;11.760;2024-03-25T11:42:43;19.34;33.77
71649;SHT31;70112;45.624;11.760;2024-03-25T11:45:17;19.24;33.51
71649;SHT31;70112;45.624;11.760;2024-03-25T11:47:45;19.17;33.56
71649;SHT31;70112;45.624;11.760;2024-03-25T11:50:12;19.10;34.11
71649;SHT31;70112;45.624;11.760;2024-03-25T11:52:42;19.01;35.40
71649;SHT31;70112;45.624;11.760;2024-03-25T11:55:08;18.91;35.35
71649;SHT31;70112;45.624;11.760;2024-03-25T11:57:35;18.85;35.79
71649;SHT31;70112;45.624;11.760;2024-03-25T12:00:01;18.79;35.59
71649;SHT31;70112;45.624;11.760;2024-03-25T12:02:31;18.81;35.47
71649;SHT31;70112;45.624;11.760;2024-03-25T12:04:57;18.83;35.43
71649;SHT31;70112;45.624;11.760;2024-03-25T12:07:22;18.89;36.51
71649;SHT31;70112;45.624;11.760;2024-03-25T12:09:48;18.89;36.72
71649;SHT31;70112;45.624;11.760;2024-03-25T12:12:32;18.94;36.41
71649;SHT31;70112;45.624;11.760;2024-03-25T12:14:59;18.96;36.39
71649;SHT31;70112;45.624;11.760;2024-03-25T12:17:27;18.86;35.41
71649;SHT31;70112;45.624;11.760;2024-03-25T12:20:03;18.78;35.45
71649;SHT31;70112;45.624;11.760;2024-03-25T12:22:33;18.68;35.23
71649;SHT31;70112;45.624;11.760;2024-03-25T12:24:59;18.65;35.52
71649;SHT31;70112;45.624;11.760;2024-03-25T12:27:28;18.61;35.88
71649;SHT31;70112;45.624;11.760;2024-03-25T12:30:27;18.55;35.71
71649;SHT31;70112;45.624;11.760;2024-03-25T12:32:45;18.51;35.31
71649;SHT31;70112;45.624;11.760;2024-03-25T12:35:11;18.50;35.61
71649;SHT31;70112;45.624;11.760;2024-03-25T12:37:41;18.51;36.08
71649;SHT31;70112;45.624;11.760;2024-03-25T12:40:12;18.47;37.14
71649;SHT31;70112;45.624;11.760;2024-03-25T12:42:53;18.42;36.63
71649;SHT31;70112;45.624;11.760;2024-03-25T12:45:22;18.44;36.47
71649;SHT31;70112;45.624;11.760;2024-03-25T12:47:48;18.46;36.93
71649;SHT31;70112;45.624;11.760;2024-03-25T12:50:17;18.44;36.53
71649;SHT31;70112;45.624;11.760;2024-03-25T12:52:43;18.37;36.21
71649;SHT31;70112;45.624;11.760;2024-03-25T12:55:09;18.35;36.26
71649;SHT31;70112;45.624;11.760;2024-03-25T12:57:35;18.34;36.36
71649;SHT31;70112;45.624;11.760;2024-03-25T13:00:00;18.36;37.01
71649;SHT31;70112;45.624;11.760;2024-03-25T13:02:28;18.36;36.84
71649;SHT31;70112;45.624;11.760;2024-03-25T13:04:54;18.35;36.03
71649;SHT31;70112;45.624;11.760;2024-03-25T13:07:19;18.33;35.75
71649;SHT31;70112;45.624;11.760;2024-03-25T13:09:45;18.36;36.58
71649;SHT31;70112;45.624;11.760;2024-03-25T13:12:10;18.39;37.13
71649;SHT31;70112;45.624;11.760;2024-03-25T13:14:36;18.41;36.86
71649;SHT31;70112;45.624;11.760;2024-03-25T13:17:02;18.40;36.30
71649;SHT31;70112;45.624;11.760;2024-03-25T13:19:27;18.37;35.99
71649;SHT31;70112;45.624;11.760;2024-03-25T13:21:53;18.39;36.91
71649;SHT31;70112;45.624;11.760;2024-03-25T13:24:20;18.35;37.80
71649;SHT31;70112;45.624;11.760;2024-03-25T13:26:46;18.38;37.33
71649;SHT31;70112;45.624;11.760;2024-03-25T13:29:12;18.37;36.01
71649;SHT31;70112;45.624;11.760;2024-03-25T13:31:37;18.36;35.50
71649;SHT31;70112;45.624;11.760;2024-03-25T13:34:02;18.32;35.14
71649;SHT31;70112;45.624;11.760;2024-03-25T13:36:28;18.30;34.81
71649;SHT31;70112;45.624;11.760;2024-03-25T13:38:53;18.30;34.40
71649;SHT31;70112;45.624;11.760;2024-03-25T13:41:19;18.28;34.30
71649;SHT31;70112;45.624;11.760;2024-03-25T13:43:47;18.27;34.37
71649;SHT31;70112;45.624;11.760;2024-03-25T13:46:12;18.25;34.56
71649;SHT31;70112;45.624;11.760;2024-03-25T13:48:38;18.25;35.71
71649;SHT31;70112;45.624;11.760;2024-03-25T13:51:03;18.25;36.37
71649;SHT31;70112;45.624;11.760;2024-03-25T13:53:29;18.24;35.10
71649;SHT31;70112;45.624;11.760;2024-03-25T13:55:54;18.26;35.26
71649;SHT31;70112;45.624;11.760;2024-03-25T13:58:20;18.24;35.42
71649;SHT31;70112;45.624;11.760;2024-03-25T14:00:45;18.20;34.75
71649;SHT31;70112;45.624;11.760;2024-03-25T14:03:11;18.19;35.13
71649;SHT31;70112;45.624;11.760;2024-03-25T14:05:36;18.17;34.88
71649;SHT31;70112;45.624;11.760;2024-03-25T14:08:02;18.14;34.43
71649;SHT31;70112;45.624;11.760;2024-03-25T14:10:28;18.10;35.39
71649;SHT31;70112;45.624;11.760;2024-03-25T14:12:55;18.09;36.30
71649;SHT31;70112;45.624;11.760;2024-03-25T14:15:20;18.08;36.41
71649;SHT31;70112;45.624;11.760;2024-03-25T14:17:46;18.03;35.32
71649;SHT31;70112;45.624;11.760;2024-03-25T14:20:11;17.98;35.43
71649;SHT31;70112;45.624;11.760;2024-03-25T14:22:37;17.94;35.73
71649;SHT31;70112;45.624;11.760;2024-03-25T14:25:03;17.90;35.16
71649;SHT31;70112;45.624;11.760;2024-03-25T14:27:29;17.84;35.23
71649;SHT31;70112;45.624;11.760;2024-03-25T14:29:55;17.83;36.39
71649;SHT31;70112;45.624;11.760;2024-03-25T14:32:20;17.84;36.85
71649;SHT31;70112;45.624;11.760;2024-03-25T14:34:47;17.84;37.18
71649;SHT31;70112;45.624;11.760;2024-03-25T14:37:14;17.87;37.14
71649;SHT31;70112;45.624;11.760;2024-03-25T14:39:40;17.87;37.52
71649;SHT31;70112;45.624;11.760;2024-03-25T14:42:10;17.89;37.51
71649;SHT31;70112;45.624;11.760;2024-03-25T14:44:36;17.90;36.73
71649;SHT31;70112;45.624;11.760;2024-03-25T14:47:02;17.89;36.67
71649;SHT31;70112;45.624;11.760;2024-03-25T14:49:29;17.84;36.46
71649;SHT31;70112;45.624;11.760;2024-03-25T14:51:54;17.81;36.84
71649;SHT31;70112;45.624;11.760;2024-03-25T14:54:21;17.78;36.97
71649;SHT31;70112;45.624;11.760;2024-03-25T14:56:46;17.78;37.02
71649;SHT31;70112;45.624;11.760;2024-03-25T14:59:12;17.77;37.24
71649;SHT31;70112;45.624;11.760;2024-03-25T15:01:38;17.77;37.93
71649;SHT31;70112;45.624;11.760;2024-03-25T15:04:04;17.77;37.81
71649;SHT31;70112;45.624;11.760;2024-03-25T15:06:31;17.76;37.44
71649;SHT31;70112;45.624;11.760;2024-03-25T15:08:57;17.76;37.92
71649;SHT31;70112;45.624;11.760;2024-03-25T15:11:24;17.77;38.21
71649;SHT31;70112;45.624;11.760;2024-03-25T15:13:52;17.73;37.75
71649;SHT31;70112;45.624;11.760;2024-03-25T15:16:19;17.68;37.63
71649;SHT31;70112;45.624;11.760;2024-03-25T15:18:44;17.64;37.27
71649;SHT31;70112;45.624;11.760;2024-03-25T15:21:10;17.59;37.30
71649;SHT31;70112;45.624;11.760;2024-03-25T15:23:36;17.54;37.38
71649;SHT31;70112;45.624;11.760;2024-03-25T15:26:01;17.49;37.47
71649;SHT31;70112;45.624;11.760;2024-03-25T15:28:27;17.42;37.26
71649;SHT31;70112;45.624;11.760;2024-03-25T15:30:54;17.37;37.43
71649;SHT31;70112;45.624;11.760;2024-03-25T15:33:21;17.34;37.75